Time;durP1;ratioP1;P1;durP2;ratioP2;P2;SDS_P1;SDS_P2;PMS_P1;PMS_P2;Temp;Humidity;BMP_temperature;BMP_pressure;BME280_temperature;BME280_humidity;BME280_pressure;Samples;Min_cycle;Max_cycle;Signal;HPM_P1;HPM_P2
2022/10/13 00:01:47;;;;;;;12.10;6.43;;;7.90;99.90;;;;;;5112909;28;20222;-78
2022/10/13 00:04:13;;;;;;;12.63;6.30;;;7.90;99.90;;;;;;5113963;28;20201;-78
2022/10/13 00:06:38;;;;;;;10.07;6.20;;;7.90;99.90;;;;;;5113034;28;20260;-78
2022/10/13 00:09:04;;;;;;;11.93;6.73;;;7.90;99.90;;;;;;5112987;28;20170;-78
2022/10/13 00:11:29;;;;;;;10.20;6.50;;;7.90;99.90;;;;;;5113175;28;20166;-78
2022/10/13 00:13:58;;;;;;;10.03;6.87;;;8.00;99.90;;;;;;5114373;28;20272;-78
2022/10/13 00:16:24;;;;;;;8.50;6.37;;;7.90;99.90;;;;;;5113307;28;20180;-78
2022/10/13 00:18:50;;;;;;;9.30;6.53;;;8.00;99.90;;;;;;5114067;28;20218;-78
2022/10/13 00:21:19;;;;;;;10.77;6.93;;;8.00;99.90;;;;;;5113765;28;20272;-78
2022/10/13 00:23:45;;;;;;;11.07;6.80;;;8.00;99.90;;;;;;5112953;28;20197;-77
2022/10/13 00:26:13;;;;;;;13.17;7.20;;;8.00;99.90;;;;;;5114121;28;20170;-78
2022/10/13 00:28:39;;;;;;;10.30;6.77;;;8.00;99.90;;;;;;5113964;28;20165;-78
2022/10/13 00:31:25;;;;;;;12.23;6.43;;;8.00;99.90;;;;;;5112831;28;20228;-78
2022/10/13 00:33:54;;;;;;;12.97;6.67;;;8.00;99.90;;;;;;5112513;28;20544;-78
2022/10/13 00:36:21;;;;;;;10.33;6.60;;;8.00;99.90;;;;;;5114111;28;20245;-78
2022/10/13 00:38:47;;;;;;;9.47;6.07;;;8.00;99.90;;;;;;5113853;28;20174;-78
2022/10/13 00:41:13;;;;;;;13.13;6.70;;;8.10;99.90;;;;;;5112696;28;20219;-78
2022/10/13 00:44:01;;;;;;;9.10;5.77;;;8.00;99.90;;;;;;5112292;28;20185;-78
2022/10/13 00:46:29;;;;;;;9.23;6.60;;;8.10;99.90;;;;;;5112617;28;20214;-78
2022/10/13 00:49:12;;;;;;;11.63;6.80;;;8.10;99.90;;;;;;5113748;28;20190;-78
2022/10/13 00:51:42;;;;;;;11.53;6.80;;;8.10;99.90;;;;;;5113928;28;20211;-77
2022/10/13 00:54:12;;;;;;;11.20;6.87;;;8.10;99.90;;;;;;5114168;28;20182;-77
2022/10/13 00:56:39;;;;;;;10.80;6.17;;;8.20;99.90;;;;;;5114728;28;20245;-78
2022/10/13 00:59:11;;;;;;;11.13;7.87;;;8.20;99.90;;;;;;5112630;28;20173;-78
2022/10/13 01:01:37;;;;;;;10.07;6.77;;;8.20;99.90;;;;;;5114430;28;20688;-78
2022/10/13 01:04:02;;;;;;;14.17;7.63;;;8.20;99.90;;;;;;5114365;28;20205;-77
2022/10/13 01:06:29;;;;;;;10.53;6.80;;;8.20;99.90;;;;;;5116208;28;20166;-78
2022/10/13 01:08:54;;;;;;;9.13;6.63;;;8.20;99.90;;;;;;5114504;28;20180;-78
2022/10/13 01:11:31;;;;;;;14.77;8.20;;;8.30;99.90;;;;;;5114416;28;20170;-78
2022/10/13 01:14:43;;;;;;;12.87;8.07;;;8.30;99.90;;;;;;5115257;28;20227;-77
2022/10/13 01:17:33;;;;;;;13.40;7.80;;;8.30;99.90;;;;;;5082808;28;20557;-77
2022/10/13 01:20:36;;;;;;;11.93;7.63;;;8.30;99.90;;;;;;5117097;28;20209;-77
2022/10/13 01:23:26;;;;;;;13.33;7.53;;;8.40;99.90;;;;;;5116125;28;20192;-78
2022/10/13 01:26:10;;;;;;;12.60;8.33;;;8.40;99.90;;;;;;5116048;28;20679;-78
2022/10/13 01:28:53;;;;;;;12.87;8.57;;;8.40;99.90;;;;;;5116136;28;20158;-77
2022/10/13 01:31:26;;;;;;;13.97;9.63;;;8.50;99.90;;;;;;5117337;28;20162;-78
2022/10/13 01:34:03;;;;;;;16.33;9.20;;;8.50;99.90;;;;;;5117331;28;20738;-78
2022/10/13 01:36:57;;;;;;;16.67;9.10;;;8.50;99.90;;;;;;5117195;28;20158;-77
2022/10/13 01:39:31;;;;;;;19.43;9.40;;;8.60;99.90;;;;;;5114697;28;20272;-78
2022/10/13 01:42:10;;;;;;;16.00;9.23;;;8.70;99.90;;;;;;5117470;28;20206;-79
2022/10/13 01:44:40;;;;;;;19.40;10.13;;;8.70;99.90;;;;;;5115616;28;20193;-78
2022/10/13 01:47:08;;;;;;;13.10;8.43;;;8.70;99.90;;;;;;5117972;28;20153;-78
2022/10/13 01:49:34;;;;;;;17.27;10.27;;;8.70;99.90;;;;;;5117544;28;20227;-78
2022/10/13 01:52:06;;;;;;;20.77;9.80;;;8.80;99.90;;;;;;5115961;28;20178;-78
2022/10/13 01:54:32;;;;;;;15.87;9.60;;;8.80;99.90;;;;;;5117153;28;20194;-78
2022/10/13 01:56:57;;;;;;;16.33;9.87;;;8.80;99.90;;;;;;5117136;28;20686;-78
2022/10/13 01:59:25;;;;;;;20.17;11.13;;;8.90;99.90;;;;;;5116847;28;20180;-78
2022/10/13 02:02:02;;;;;;;14.77;10.30;;;9.00;99.90;;;;;;5115606;28;20187;-78
2022/10/13 02:04:44;;;;;;;22.83;9.97;;;9.00;99.90;;;;;;5143909;22;20267;-92
2022/10/13 02:07:33;;;;;;;25.27;10.63;;;9.10;99.90;;;;;;5104088;28;20177;-90
2022/10/13 02:10:12;;;;;;;16.43;10.73;;;9.10;99.90;;;;;;5103923;28;20178;-91
2022/10/13 02:12:52;;;;;;;18.63;9.70;;;9.10;99.90;;;;;;5103802;28;20202;-92
2022/10/13 02:15:23;;;;;;;19.83;10.77;;;9.10;99.90;;;;;;5103946;28;20170;-92
2022/10/13 02:17:50;;;;;;;17.77;9.80;;;9.20;99.90;;;;;;5103924;28;20239;-90
2022/10/13 02:20:18;;;;;;;23.13;10.30;;;9.20;99.90;;;;;;5103671;28;20210;-91
2022/10/13 02:22:46;;;;;;;20.73;11.10;;;9.30;99.90;;;;;;5103649;28;20291;-90
2022/10/13 02:25:12;;;;;;;17.80;10.83;;;9.30;99.90;;;;;;5102537;28;20171;-92
2022/10/13 02:27:38;;;;;;;15.87;10.07;;;9.20;99.90;;;;;;5103705;28;20188;-93
2022/10/13 02:30:04;;;;;;;19.07;9.77;;;9.20;99.90;;;;;;5103627;28;20194;-91
2022/10/13 02:32:30;;;;;;;18.63;10.50;;;9.30;99.90;;;;;;5103486;28;20261;-92
2022/10/13 02:34:56;;;;;;;18.70;10.23;;;9.70;99.90;;;;;;5103640;28;20169;-91
2022/10/13 02:37:24;;;;;;;17.83;9.77;;;9.50;99.90;;;;;;5103431;27;20166;-92
2022/10/13 02:39:49;;;;;;;18.13;11.20;;;9.40;99.90;;;;;;5103402;28;20232;-92
2022/10/13 02:42:15;;;;;;;21.83;10.30;;;9.40;99.90;;;;;;5103440;28;20190;-91
2022/10/13 02:44:41;;;;;;;18.30;11.53;;;9.50;99.90;;;;;;5103300;28;20163;-91
2022/10/13 02:47:06;;;;;;;20.33;11.27;;;9.50;99.90;;;;;;5103396;28;20154;-92
2022/10/13 02:49:35;;;;;;;19.73;11.10;;;9.60;99.90;;;;;;5120672;28;20226;-90
2022/10/13 02:52:00;;;;;;;20.80;11.10;;;9.60;99.90;;;;;;5103113;28;20174;-90
2022/10/13 02:54:26;;;;;;;18.33;10.43;;;9.60;99.90;;;;;;5103124;28;20173;-92
2022/10/13 02:56:52;;;;;;;15.97;10.20;;;9.60;99.90;;;;;;5103173;28;20184;-90
2022/10/13 02:59:17;;;;;;;21.57;10.67;;;9.70;99.90;;;;;;5120378;28;20185;-91
2022/10/13 03:01:43;;;;;;;19.20;10.77;;;9.70;99.90;;;;;;5102748;28;20192;-92
2022/10/13 03:04:09;;;;;;;13.43;9.23;;;9.70;99.90;;;;;;5102739;28;20224;-91
2022/10/13 03:06:35;;;;;;;18.23;11.37;;;9.60;99.90;;;;;;5102894;28;20174;-91
2022/10/13 03:09:01;;;;;;;17.97;10.70;;;9.70;99.90;;;;;;5120346;28;20177;-92
2022/10/13 03:11:30;;;;;;;20.17;10.77;;;9.70;99.90;;;;;;5102676;28;20170;-93
2022/10/13 03:13:55;;;;;;;24.83;10.57;;;9.70;99.90;;;;;;5102517;28;20162;-90
2022/10/13 03:16:21;;;;;;;17.83;11.00;;;9.80;99.90;;;;;;5120196;28;20169;-92
2022/10/13 03:18:46;;;;;;;19.57;10.43;;;9.80;99.90;;;;;;5102670;28;20158;-92
2022/10/13 03:21:12;;;;;;;14.87;10.73;;;9.80;99.90;;;;;;5102388;28;20213;-92
2022/10/13 03:23:40;;;;;;;16.50;10.80;;;9.70;99.90;;;;;;5119829;28;20188;-92
2022/10/13 03:26:06;;;;;;;15.40;9.97;;;9.80;99.90;;;;;;5120015;28;20179;-92
2022/10/13 03:28:32;;;;;;;19.07;10.03;;;10.00;99.90;;;;;;5102547;28;20170;-91
2022/10/13 03:31:03;;;;;;;17.27;10.30;;;10.00;99.90;;;;;;5119778;28;20201;-92
2022/10/13 03:33:29;;;;;;;14.10;10.10;;;9.80;99.90;;;;;;5102205;28;20191;-92
2022/10/13 03:35:58;;;;;;;18.17;10.03;;;9.80;99.90;;;;;;5119699;28;20173;-91
2022/10/13 03:38:24;;;;;;;18.27;10.40;;;9.80;99.90;;;;;;5102057;28;20177;-91
2022/10/13 03:40:49;;;;;;;15.00;9.87;;;9.80;99.90;;;;;;5102119;28;20186;-92
2022/10/13 03:43:15;;;;;;;19.17;10.10;;;9.90;99.90;;;;;;5102126;28;20209;-91
2022/10/13 03:45:40;;;;;;;16.13;10.03;;;9.90;99.90;;;;;;5119578;28;20188;-92
2022/10/13 03:48:06;;;;;;;14.60;9.53;;;9.90;99.90;;;;;;5102001;28;20166;-92
2022/10/13 03:50:32;;;;;;;16.10;9.63;;;9.90;99.90;;;;;;5119459;28;20178;-92
2022/10/13 03:52:57;;;;;;;23.00;10.27;;;9.70;99.90;;;;;;5102066;28;20169;-91
2022/10/13 03:55:23;;;;;;;16.33;10.90;;;9.90;99.90;;;;;;5101962;28;20167;-92
2022/10/13 03:57:49;;;;;;;15.97;10.33;;;9.90;99.90;;;;;;5101777;28;20165;-91
2022/10/13 04:00:15;;;;;;;18.27;10.73;;;9.90;99.90;;;;;;5101880;28;20198;-92
2022/10/13 04:02:40;;;;;;;19.17;10.00;;;9.90;99.90;;;;;;5100768;28;20251;-92
2022/10/13 04:05:06;;;;;;;21.17;10.57;;;10.00;99.90;;;;;;5101686;28;20187;-92
2022/10/13 04:07:32;;;;;;;16.23;9.97;;;9.90;99.90;;;;;;5101742;28;20173;-92
2022/10/13 04:09:57;;;;;;;16.27;10.23;;;10.30;99.90;;;;;;5101898;28;20146;-89
2022/10/13 04:12:23;;;;;;;14.37;10.53;;;9.90;99.90;;;;;;5101688;28;20174;-92
2022/10/13 04:14:48;;;;;;;17.97;10.23;;;9.80;99.90;;;;;;5101664;28;20162;-90
2022/10/13 04:17:14;;;;;;;17.47;10.63;;;9.90;99.90;;;;;;5101780;28;20162;-92
2022/10/13 04:19:40;;;;;;;16.80;9.53;;;10.00;99.90;;;;;;5101601;28;20192;-92
2022/10/13 04:22:05;;;;;;;16.30;9.67;;;10.00;99.90;;;;;;5101595;28;20190;-92
2022/10/13 04:24:31;;;;;;;16.43;9.70;;;10.00;99.90;;;;;;5101586;28;20166;-91
2022/10/13 04:26:57;;;;;;;17.87;9.53;;;10.00;99.90;;;;;;5101570;28;20166;-91
2022/10/13 04:29:38;;;;;;;12.70;9.17;;;10.00;99.90;;;;;;5070662;28;20549;-77
2022/10/13 04:32:04;;;;;;;17.20;10.60;;;10.00;99.90;;;;;;5070622;28;20316;-77
2022/10/13 04:34:29;;;;;;;18.67;9.60;;;10.00;99.90;;;;;;5069202;28;20197;-77
2022/10/13 04:36:54;;;;;;;17.63;9.83;;;10.00;99.90;;;;;;5069091;28;20177;-77
2022/10/13 04:39:20;;;;;;;15.13;10.40;;;10.10;99.90;;;;;;5069265;28;20175;-77
2022/10/13 04:41:46;;;;;;;17.17;9.77;;;10.10;99.90;;;;;;5053259;22;20232;-77
2022/10/13 04:44:11;;;;;;;16.97;9.50;;;10.90;99.90;;;;;;5014079;28;20181;-78
2022/10/13 04:46:37;;;;;;;19.90;10.00;;;10.10;99.90;;;;;;5015545;28;20216;-77
2022/10/13 04:49:03;;;;;;;12.27;9.10;;;10.10;99.90;;;;;;5015260;28;20599;-77
2022/10/13 04:51:29;;;;;;;16.57;9.27;;;10.20;99.90;;;;;;5015218;28;20185;-77
2022/10/13 04:53:59;;;;;;;18.60;9.40;;;10.10;99.90;;;;;;5015341;28;20714;-77
2022/10/13 04:56:25;;;;;;;18.00;8.97;;;10.10;99.90;;;;;;5014519;28;20157;-78
2022/10/13 04:58:51;;;;;;;15.70;10.17;;;10.50;99.90;;;;;;5016026;28;20228;-77
2022/10/13 05:01:22;;;;;;;15.13;8.40;;;10.10;99.90;;;;;;5018029;28;20220;-77
2022/10/13 05:04:01;;;;;;;14.27;8.90;;;10.20;99.90;;;;;;5016278;28;20158;-78
2022/10/13 05:06:29;;;;;;;16.07;10.13;;;10.20;99.90;;;;;;5015069;28;20168;-78
2022/10/13 05:08:56;;;;;;;15.77;9.47;;;10.20;99.90;;;;;;5015030;28;20204;-78
2022/10/13 05:11:23;;;;;;;19.20;9.67;;;10.20;99.90;;;;;;5015328;28;20192;-79
2022/10/13 05:13:48;;;;;;;17.50;9.90;;;10.20;99.90;;;;;;5014513;28;20169;-79
2022/10/13 05:16:16;;;;;;;15.47;9.73;;;11.00;99.90;;;;;;5014324;28;20223;-78
2022/10/13 05:18:42;;;;;;;14.20;9.33;;;10.10;99.90;;;;;;5015451;28;20694;-78
2022/10/13 05:21:13;;;;;;;17.13;8.77;;;10.20;99.90;;;;;;5015848;28;20193;-78
2022/10/13 05:23:39;;;;;;;14.20;9.33;;;10.20;99.90;;;;;;5015748;28;20177;-78
2022/10/13 05:26:10;;;;;;;15.77;9.13;;;10.20;99.90;;;;;;5017434;28;20577;-78
2022/10/13 05:28:36;;;;;;;12.47;8.40;;;10.20;99.90;;;;;;5016224;28;20193;-78
2022/10/13 05:31:29;;;;;;;15.77;8.53;;;10.10;99.90;;;;;;5020061;28;20694;-79
2022/10/13 05:33:55;;;;;;;11.07;7.53;;;10.20;99.90;;;;;;5019450;28;20192;-80
2022/10/13 05:36:28;;;;;;;13.57;8.20;;;10.20;99.90;;;;;;5021974;28;20166;-80
2022/10/13 05:38:56;;;;;;;15.63;7.93;;;10.10;99.90;;;;;;5019975;28;20555;-80
2022/10/13 05:41:23;;;;;;;13.60;8.57;;;10.10;99.90;;;;;;5007159;28;20217;-80
2022/10/13 05:43:52;;;;;;;16.20;9.47;;;10.10;99.90;;;;;;5013286;28;20201;-80
2022/10/13 05:46:17;;;;;;;17.97;8.47;;;10.10;99.90;;;;;;5016948;28;20169;-80
2022/10/13 05:48:43;;;;;;;16.67;8.27;;;10.20;99.90;;;;;;5011419;28;20289;-79
2022/10/13 05:51:21;;;;;;;15.50;8.63;;;10.10;99.90;;;;;;5006576;28;20197;-80
2022/10/13 05:53:51;;;;;;;14.73;8.63;;;10.10;99.90;;;;;;5006844;28;20158;-80
2022/10/13 05:56:20;;;;;;;13.67;9.03;;;10.10;99.90;;;;;;5005238;28;20177;-80
2022/10/13 05:58:52;;;;;;;15.10;8.90;;;10.20;99.90;;;;;;5007250;28;20309;-80
2022/10/13 06:01:21;;;;;;;13.20;8.07;;;10.10;99.90;;;;;;5007299;28;20201;-79
2022/10/13 06:03:49;;;;;;;13.43;8.37;;;10.10;99.90;;;;;;5006386;28;20237;-80
2022/10/13 06:06:15;;;;;;;13.33;8.53;;;10.10;99.90;;;;;;5007338;28;20188;-80
2022/10/13 06:08:41;;;;;;;16.20;8.73;;;10.20;99.90;;;;;;5005473;28;20212;-80
2022/10/13 06:11:07;;;;;;;12.77;7.60;;;10.10;99.90;;;;;;5005229;28;20197;-80
2022/10/13 06:13:34;;;;;;;13.70;7.90;;;10.10;99.90;;;;;;5005856;28;20178;-80
2022/10/13 06:15:59;;;;;;;16.20;8.67;;;10.10;99.90;;;;;;5004864;28;20189;-80
2022/10/13 06:18:25;;;;;;;13.97;8.97;;;10.10;99.90;;;;;;5005186;28;20185;-80
2022/10/13 06:20:50;;;;;;;11.10;7.90;;;10.10;99.90;;;;;;5004742;28;20201;-80
2022/10/13 06:23:16;;;;;;;14.30;7.83;;;10.10;99.90;;;;;;5005904;28;20185;-80
2022/10/13 06:25:49;;;;;;;16.17;9.30;;;10.20;99.90;;;;;;5006274;28;20189;-80
2022/10/13 06:28:17;;;;;;;15.00;8.63;;;10.20;99.90;;;;;;5006556;28;20212;-80
2022/10/13 06:30:46;;;;;;;12.60;7.93;;;10.20;99.90;;;;;;5006908;28;20185;-80
2022/10/13 06:33:12;;;;;;;14.87;7.90;;;10.20;99.90;;;;;;5007770;28;20216;-79
2022/10/13 06:35:38;;;;;;;15.60;8.53;;;10.20;99.90;;;;;;5006137;28;20174;-79
2022/10/13 06:38:03;;;;;;;13.57;8.40;;;10.20;99.90;;;;;;5006729;28;20231;-80
2022/10/13 06:40:29;;;;;;;17.43;8.80;;;10.20;99.90;;;;;;5006206;28;20221;-80
2022/10/13 06:42:54;;;;;;;11.83;7.63;;;10.20;99.90;;;;;;5008816;28;20185;-80
2022/10/13 06:45:20;;;;;;;12.27;7.77;;;10.20;99.90;;;;;;5008680;28;20188;-80
2022/10/13 06:47:45;;;;;;;13.50;8.20;;;10.20;99.90;;;;;;5006799;28;20201;-80
2022/10/13 06:50:11;;;;;;;12.93;8.37;;;10.30;99.90;;;;;;5016091;28;20169;-80
2022/10/13 06:52:37;;;;;;;12.43;8.13;;;10.30;99.90;;;;;;5010676;28;20177;-79
2022/10/13 06:55:03;;;;;;;17.37;8.40;;;10.40;99.90;;;;;;5005424;28;20219;-79
2022/10/13 06:57:29;;;;;;;16.93;9.13;;;10.30;99.90;;;;;;5002824;28;20177;-79
2022/10/13 06:59:54;;;;;;;13.47;8.27;;;10.40;99.90;;;;;;5003733;28;20192;-79
2022/10/13 07:02:20;;;;;;;17.70;8.60;;;10.40;99.90;;;;;;5004379;28;20200;-79
2022/10/13 07:04:46;;;;;;;13.97;8.80;;;10.40;99.90;;;;;;5004050;28;20178;-80
2022/10/13 07:07:13;;;;;;;16.37;8.90;;;10.50;99.90;;;;;;5004679;28;20260;-80
2022/10/13 07:09:38;;;;;;;14.93;8.57;;;10.50;99.90;;;;;;5002434;28;20186;-80
2022/10/13 07:12:04;;;;;;;15.40;9.03;;;10.60;99.90;;;;;;5004449;28;20244;-79
2022/10/13 07:14:29;;;;;;;18.93;8.50;;;10.50;99.90;;;;;;5002406;28;20659;-79
2022/10/13 07:16:55;;;;;;;17.23;8.90;;;10.60;99.90;;;;;;5004869;28;20236;-79
2022/10/13 07:19:20;;;;;;;15.10;9.10;;;10.60;99.90;;;;;;5004353;28;20703;-79
2022/10/13 07:21:46;;;;;;;12.77;8.07;;;10.70;99.90;;;;;;5003161;28;20236;-79
2022/10/13 07:24:11;;;;;;;13.87;8.43;;;10.70;99.90;;;;;;5004049;28;20184;-79
2022/10/13 07:26:37;;;;;;;16.03;9.47;;;10.70;99.90;;;;;;5002366;28;20246;-79
2022/10/13 07:29:03;;;;;;;14.07;8.20;;;10.80;99.90;;;;;;5002999;28;20209;-79
2022/10/13 07:31:28;;;;;;;19.97;8.57;;;10.80;99.90;;;;;;5001367;28;20567;-80
2022/10/13 07:33:55;;;;;;;14.10;8.70;;;10.90;99.90;;;;;;5003066;28;20174;-79
2022/10/13 07:36:21;;;;;;;13.67;8.93;;;10.90;99.90;;;;;;5002317;28;20181;-80
2022/10/13 07:38:47;;;;;;;13.47;8.73;;;11.00;99.90;;;;;;5003555;28;20245;-80
2022/10/13 07:41:13;;;;;;;14.60;8.97;;;11.00;99.90;;;;;;5003062;28;20231;-80
2022/10/13 07:43:39;;;;;;;10.87;8.80;;;11.00;99.90;;;;;;5002031;28;20679;-80
2022/10/13 07:46:06;;;;;;;14.33;8.27;;;11.10;99.90;;;;;;5004639;28;20185;-80
2022/10/13 07:48:33;;;;;;;15.07;8.37;;;11.20;99.90;;;;;;5004725;28;20205;-80
2022/10/13 07:51:02;;;;;;;14.83;7.93;;;11.20;99.90;;;;;;5002661;28;20265;-79
2022/10/13 07:53:27;;;;;;;13.63;8.40;;;11.30;99.90;;;;;;5004682;28;20660;-80
2022/10/13 07:55:53;;;;;;;13.40;8.20;;;11.30;99.90;;;;;;5004375;28;20185;-80
2022/10/13 07:58:18;;;;;;;14.50;8.23;;;11.40;99.90;;;;;;5003775;28;20177;-80
2022/10/13 08:00:44;;;;;;;11.93;8.80;;;11.50;99.90;;;;;;5004935;28;20201;-80
2022/10/13 08:03:09;;;;;;;16.83;8.20;;;11.60;99.90;;;;;;5005048;28;20181;-80
2022/10/13 08:05:38;;;;;;;15.93;8.70;;;11.70;99.90;;;;;;5002800;28;20182;-80
2022/10/13 08:08:04;;;;;;;12.57;7.97;;;11.70;99.90;;;;;;5004351;28;20205;-80
2022/10/13 08:10:29;;;;;;;15.83;7.53;;;11.90;99.90;;;;;;5002505;28;20667;-80
2022/10/13 08:12:55;;;;;;;13.83;7.83;;;11.90;99.90;;;;;;5002448;28;20676;-80
2022/10/13 08:15:20;;;;;;;11.67;8.43;;;12.00;99.90;;;;;;5002745;28;20224;-80
2022/10/13 08:17:46;;;;;;;12.37;6.63;;;12.00;99.90;;;;;;5000195;28;20652;-80
2022/10/13 08:20:12;;;;;;;14.50;7.30;;;12.10;99.90;;;;;;5000219;28;20177;-81
2022/10/13 08:22:38;;;;;;;14.07;8.10;;;12.10;99.90;;;;;;4999763;28;20586;-80
2022/10/13 08:25:06;;;;;;;15.23;7.73;;;12.20;99.90;;;;;;5001824;28;20184;-80
2022/10/13 08:27:31;;;;;;;13.33;7.97;;;12.20;99.90;;;;;;5001684;28;20169;-80
2022/10/13 08:29:57;;;;;;;12.00;8.20;;;12.20;99.90;;;;;;4999859;28;20180;-80
2022/10/13 08:32:22;;;;;;;13.40;8.37;;;12.30;99.90;;;;;;5001746;28;20224;-80
2022/10/13 08:34:49;;;;;;;12.10;8.20;;;12.30;99.90;;;;;;5001416;28;20177;-80
2022/10/13 08:37:16;;;;;;;16.67;9.77;;;12.30;99.90;;;;;;5000735;28;20180;-79
2022/10/13 08:39:41;;;;;;;13.20;7.37;;;12.30;99.90;;;;;;5000879;28;20178;-79
2022/10/13 08:42:14;;;;;;;15.70;8.70;;;12.40;99.90;;;;;;5000414;28;20217;-80
2022/10/13 08:44:48;;;;;;;14.63;8.43;;;12.40;99.90;;;;;;5001324;28;20525;-80
2022/10/13 08:47:21;;;;;;;18.60;8.50;;;12.40;99.90;;;;;;4999281;28;20166;-79
2022/10/13 08:49:47;;;;;;;15.40;9.03;;;12.40;99.90;;;;;;5000486;28;20185;-80
2022/10/13 08:52:18;;;;;;;14.27;8.33;;;12.50;99.90;;;;;;4998718;28;20280;-80
2022/10/13 08:54:44;;;;;;;13.43;9.03;;;12.60;99.90;;;;;;4998897;28;20534;-80
2022/10/13 08:57:10;;;;;;;14.73;8.07;;;12.70;99.90;;;;;;4998213;28;20174;-79
2022/10/13 08:59:35;;;;;;;17.67;8.17;;;12.80;99.90;;;;;;4998229;28;20173;-80
2022/10/13 09:02:08;;;;;;;12.80;7.97;;;12.80;99.90;;;;;;4997733;28;20204;-79
2022/10/13 09:04:40;;;;;;;11.00;8.17;;;13.00;99.90;;;;;;4999456;28;20166;-79
2022/10/13 09:07:13;;;;;;;11.33;7.17;;;13.10;99.90;;;;;;4999496;28;20165;-79
2022/10/13 09:09:39;;;;;;;17.23;8.33;;;13.20;99.90;;;;;;4997885;28;20221;-80
2022/10/13 09:12:05;;;;;;;12.97;7.90;;;13.20;99.90;;;;;;4998040;28;20198;-79
2022/10/13 09:14:36;;;;;;;13.47;7.77;;;13.30;99.90;;;;;;5000727;28;20236;-79
2022/10/13 09:17:15;;;;;;;10.53;7.33;;;13.40;99.90;;;;;;5001505;28;20261;-80
2022/10/13 09:19:40;;;;;;;17.67;8.13;;;13.40;99.90;;;;;;5002978;28;20240;-80
2022/10/13 09:22:23;;;;;;;12.33;8.20;;;13.50;99.90;;;;;;5001694;28;20197;-80
2022/10/13 09:25:20;;;;;;;9.77;7.00;;;13.60;99.90;;;;;;5003078;28;20169;-80
2022/10/13 09:27:48;;;;;;;13.30;7.50;;;13.70;99.90;;;;;;4996029;28;20624;-80
2022/10/13 09:30:37;;;;;;;11.50;8.17;;;13.70;99.90;;;;;;5001347;28;20169;-80
2022/10/13 09:33:08;;;;;;;13.37;7.27;;;13.80;99.90;;;;;;5002513;28;20154;-80
2022/10/13 09:35:45;;;;;;;12.83;7.93;;;13.90;99.90;;;;;;5002951;28;20166;-80
2022/10/13 09:38:12;;;;;;;11.77;7.93;;;13.90;99.90;;;;;;5001122;28;20237;-80
2022/10/13 09:40:39;;;;;;;16.53;7.60;;;14.00;99.90;;;;;;5002249;28;20201;-80
2022/10/13 09:43:25;;;;;;;15.63;8.53;;;14.10;99.90;;;;;;5003372;28;20671;-80
2022/10/13 09:45:52;;;;;;;12.47;7.07;;;14.10;99.90;;;;;;5000831;28;20176;-81
2022/10/13 09:48:23;;;;;;;10.17;6.53;;;14.10;99.90;;;;;;5002109;28;20201;-80
2022/10/13 09:50:51;;;;;;;15.37;8.17;;;14.20;99.90;;;;;;5002241;28;20189;-79
2022/10/13 09:53:22;;;;;;;9.67;7.43;;;14.10;99.90;;;;;;5004007;28;20166;-80
2022/10/13 09:55:48;;;;;;;12.57;7.53;;;14.20;99.90;;;;;;5002196;28;20161;-81
2022/10/13 09:58:28;;;;;;;15.47;6.83;;;14.20;99.90;;;;;;5003296;28;20652;-81
2022/10/13 10:00:56;;;;;;;11.77;6.23;;;14.30;99.90;;;;;;5004192;28;20193;-81
2022/10/13 10:03:26;;;;;;;13.63;6.63;;;14.30;99.90;;;;;;5002037;28;20177;-81
2022/10/13 10:05:58;;;;;;;12.00;6.33;;;14.30;99.90;;;;;;5001848;28;20188;-81
2022/10/13 10:08:51;;;;;;;9.63;6.47;;;14.30;99.90;;;;;;5002933;28;20566;-80
2022/10/13 10:11:32;;;;;;;11.37;6.63;;;14.30;99.90;;;;;;5004489;28;20193;-80
2022/10/13 10:14:11;;;;;;;10.37;6.73;;;14.40;99.90;;;;;;5005808;28;20197;-80
2022/10/13 10:16:43;;;;;;;15.90;7.00;;;14.40;99.90;;;;;;5004805;28;20532;-81
2022/10/13 10:19:17;;;;;;;10.07;6.67;;;14.50;99.90;;;;;;5006469;28;20189;-81
2022/10/13 10:22:13;;;;;;;18.97;7.17;;;14.50;99.90;;;;;;5007154;28;20197;-80
2022/10/13 10:24:53;;;;;;;9.97;6.50;;;14.60;99.90;;;;;;5004783;28;20189;-80
2022/10/13 10:27:35;;;;;;;12.03;6.90;;;14.80;99.90;;;;;;5007089;28;20176;-81
2022/10/13 10:30:13;;;;;;;13.87;7.43;;;14.80;99.90;;;;;;5010111;28;20177;-80
2022/10/13 10:32:47;;;;;;;16.03;6.53;;;14.90;99.90;;;;;;5006516;28;20157;-80
2022/10/13 10:35:32;;;;;;;10.90;6.80;;;15.00;99.90;;;;;;5000429;28;20157;-81
2022/10/13 10:38:20;;;;;;;12.27;6.70;;;15.10;99.90;;;;;;5000250;28;20166;-81
2022/10/13 10:41:01;;;;;;;12.43;6.40;;;15.20;99.90;;;;;;5024927;22;20211;-78
2022/10/13 10:43:51;;;;;;;12.87;7.23;;;15.20;99.90;;;;;;5016059;28;20180;-78
2022/10/13 10:46:21;;;;;;;10.70;6.17;;;15.40;99.90;;;;;;5015665;28;20173;-78
2022/10/13 10:48:49;;;;;;;9.57;6.27;;;15.50;99.90;;;;;;5016255;28;20213;-78
2022/10/13 10:51:16;;;;;;;13.43;7.33;;;15.50;99.90;;;;;;5015983;28;20235;-78
2022/10/13 10:54:15;;;;;;;12.77;6.67;;;15.60;99.90;;;;;;5016311;28;20579;-78
2022/10/13 10:57:05;;;;;;;13.70;6.93;;;15.60;99.90;;;;;;5015749;28;20165;-78
2022/10/13 11:00:04;;;;;;;11.50;6.43;;;15.70;99.90;;;;;;5015424;28;20231;-78
2022/10/13 11:02:47;;;;;;;12.73;6.60;;;15.60;99.90;;;;;;5015601;28;20717;-78
2022/10/13 11:05:13;;;;;;;13.70;6.70;;;15.60;99.90;;;;;;5017282;28;20169;-78
2022/10/13 11:07:42;;;;;;;15.40;6.77;;;15.60;99.90;;;;;;5017389;28;20173;-78
2022/10/13 11:10:15;;;;;;;11.83;6.20;;;15.60;99.90;;;;;;5022659;28;20189;-78
2022/10/13 11:12:52;;;;;;;15.37;7.27;;;15.60;99.90;;;;;;5037434;28;20189;-78
2022/10/13 11:15:24;;;;;;;10.63;6.47;;;15.70;99.90;;;;;;5036758;28;20157;-78
2022/10/13 11:17:51;;;;;;;14.93;6.83;;;15.70;99.90;;;;;;5037219;28;20284;-78
2022/10/13 11:20:19;;;;;;;12.90;6.00;;;15.70;99.90;;;;;;5037012;28;20188;-78
2022/10/13 11:22:59;;;;;;;14.57;6.90;;;15.70;99.90;;;;;;5031658;28;20201;-78
2022/10/13 11:25:38;;;;;;;14.50;7.30;;;15.70;99.90;;;;;;5014177;28;20656;-78
2022/10/13 11:28:22;;;;;;;9.53;5.93;;;15.70;99.90;;;;;;5015029;28;20209;-78
2022/10/13 11:30:54;;;;;;;13.17;6.33;;;15.70;99.90;;;;;;5013424;28;20200;-78
2022/10/13 11:33:37;;;;;;;14.70;6.70;;;15.80;99.90;;;;;;5014009;28;20177;-77
2022/10/13 11:36:34;;;;;;;13.13;6.77;;;15.70;99.90;;;;;;5014984;28;20207;-77
2022/10/13 11:39:25;;;;;;;14.80;6.37;;;15.70;99.90;;;;;;5014443;28;20266;-77
2022/10/13 11:42:11;;;;;;;16.77;6.40;;;15.80;99.90;;;;;;5013466;28;20303;-78
2022/10/13 11:45:00;;;;;;;7.07;5.33;;;15.70;99.90;;;;;;5013579;28;20164;-77
2022/10/13 11:47:59;;;;;;;10.23;6.27;;;15.70;99.90;;;;;;5015536;28;20658;-77
2022/10/13 11:50:43;;;;;;;12.80;6.00;;;15.70;99.90;;;;;;5015974;28;20173;-78
2022/10/13 11:53:17;;;;;;;11.67;5.83;;;15.70;99.90;;;;;;5013597;28;20200;-78
2022/10/13 11:56:02;;;;;;;10.53;5.60;;;15.70;99.90;;;;;;5015198;28;20175;-77
2022/10/13 11:58:29;;;;;;;14.70;5.20;;;15.70;99.90;;;;;;5014908;28;20168;-78
2022/10/13 12:00:56;;;;;;;10.20;4.27;;;15.70;99.90;;;;;;5015045;28;20243;-78
2022/10/13 12:03:31;;;;;;;6.07;4.10;;;15.70;99.90;;;;;;5013640;28;20181;-78
2022/10/13 12:06:02;;;;;;;7.30;4.33;;;15.70;99.90;;;;;;5013695;28;20177;-78
2022/10/13 12:08:29;;;;;;;7.40;3.70;;;15.60;99.90;;;;;;5013175;28;20197;-78
2022/10/13 12:10:57;;;;;;;14.20;4.10;;;15.50;99.90;;;;;;5013026;28;20204;-77
2022/10/13 12:13:28;;;;;;;9.47;4.27;;;15.40;99.90;;;;;;5013594;28;20173;-78
2022/10/13 12:16:06;;;;;;;9.20;4.60;;;15.40;99.90;;;;;;5015197;28;20160;-78
2022/10/13 12:18:34;;;;;;;6.13;3.43;;;15.30;99.90;;;;;;5013594;28;20180;-78
2022/10/13 12:21:13;;;;;;;8.80;3.97;;;15.30;99.90;;;;;;5014745;28;20199;-78
2022/10/13 12:23:39;;;;;;;8.53;4.27;;;15.30;99.90;;;;;;5014576;28;20177;-78
2022/10/13 12:26:05;;;;;;;10.37;4.60;;;15.20;99.90;;;;;;5014110;28;20543;-76
2022/10/13 12:28:55;;;;;;;13.63;4.60;;;15.20;99.90;;;;;;5014144;28;20264;-78
2022/10/13 12:31:36;;;;;;;9.33;4.17;;;15.10;99.90;;;;;;5014538;28;20271;-78
2022/10/13 12:34:02;;;;;;;8.93;3.70;;;15.10;99.90;;;;;;5014227;28;20654;-78
2022/10/13 12:36:31;;;;;;;6.57;4.37;;;15.20;99.90;;;;;;5014208;28;20170;-78
2022/10/13 12:39:03;;;;;;;6.93;4.33;;;15.10;99.90;;;;;;5013995;28;20184;-78
2022/10/13 12:41:35;;;;;;;10.93;4.43;;;15.10;99.90;;;;;;5014044;28;20216;-77
2022/10/13 12:44:02;;;;;;;7.77;4.50;;;15.10;99.90;;;;;;5014590;28;20176;-78
2022/10/13 12:46:38;;;;;;;8.20;4.77;;;15.10;99.90;;;;;;5013865;28;20524;-78
2022/10/13 12:49:11;;;;;;;9.43;4.40;;;15.20;99.90;;;;;;5012510;28;20200;-78
2022/10/13 12:51:38;;;;;;;7.73;4.63;;;15.20;99.90;;;;;;5016509;28;20243;-77
2022/10/13 12:54:16;;;;;;;9.67;4.37;;;15.40;99.90;;;;;;5016312;28;20173;-78
2022/10/13 12:56:42;;;;;;;10.43;4.20;;;15.40;99.90;;;;;;5016479;28;20623;-78